createdAt,value
2019-05-21T00:01:47.219Z,93.30
2019-05-21T00:04:27.485Z,93.80
2019-05-21T00:06:45.893Z,93.20
2019-05-21T00:09:14.443Z,93.40
2019-05-21T00:11:42.981Z,93.20
2019-05-21T00:14:11.566Z,93.30
2019-05-21T00:16:40.204Z,93.30
2019-05-21T00:19:08.844Z,93.30
2019-05-21T00:21:37.377Z,93.10
2019-05-21T00:24:05.895Z,92.90
2019-05-21T00:26:34.530Z,92.90
2019-05-21T00:29:39.388Z,93.00
2019-05-21T00:32:44.274Z,93.00
2019-05-21T00:35:53.241Z,93.00
2019-05-21T00:38:57.836Z,93.20
2019-05-21T00:42:03.685Z,93.40
2019-05-21T00:44:43.027Z,93.40
2019-05-21T00:47:12.766Z,92.90
2019-05-21T00:49:41.816Z,93.10
2019-05-21T00:52:10.489Z,93.00
2019-05-21T00:54:38.975Z,92.90
2019-05-21T00:57:07.633Z,93.10
2019-05-21T00:59:36.230Z,93.10
2019-05-21T01:02:04.782Z,93.10
2019-05-21T01:04:33.400Z,93.20
2019-05-21T01:07:02.090Z,93.10
2019-05-21T01:09:31.008Z,93.30
2019-05-21T01:11:59.549Z,93.50
2019-05-21T01:14:28.155Z,93.30
2019-05-21T01:16:56.692Z,93.10
2019-05-21T01:19:25.223Z,93.10
2019-05-21T01:21:53.714Z,93.10
2019-05-21T01:24:22.366Z,93.30
2019-05-21T01:26:51.027Z,93.40
2019-05-21T01:29:19.568Z,93.40
2019-05-21T01:31:48.128Z,93.30
2019-05-21T01:34:16.647Z,93.40
2019-05-21T01:36:45.120Z,93.50
2019-05-21T01:39:13.587Z,93.70
2019-05-21T01:41:42.075Z,93.60
2019-05-21T01:44:10.595Z,93.50
2019-05-21T01:46:39.060Z,93.50
2019-05-21T01:49:07.578Z,93.30
2019-05-21T01:51:36.288Z,93.40
2019-05-21T01:54:04.884Z,93.50
2019-05-21T01:56:33.474Z,93.60
2019-05-21T01:59:01.959Z,93.70
2019-05-21T02:01:30.618Z,93.80
2019-05-21T02:03:59.159Z,93.80
2019-05-21T02:06:27.672Z,93.70
2019-05-21T02:08:56.126Z,93.90
2019-05-21T02:11:24.662Z,93.90
2019-05-21T02:13:53.118Z,94.20
2019-05-21T02:16:21.559Z,93.80
2019-05-21T02:18:50.136Z,94.00
2019-05-21T02:21:18.759Z,94.20
2019-05-21T02:23:47.248Z,94.30
2019-05-21T02:26:15.756Z,94.60
2019-05-21T02:28:44.372Z,94.60
2019-05-21T02:31:12.898Z,94.40
2019-05-21T02:33:41.462Z,94.40
2019-05-21T02:36:10.238Z,94.40
2019-05-21T02:38:38.994Z,94.40
2019-05-21T02:41:07.534Z,94.20
2019-05-21T02:43:36.450Z,94.30
2019-05-21T02:46:05.127Z,94.30
2019-05-21T02:48:33.609Z,94.40
2019-05-21T02:51:02.061Z,94.20
2019-05-21T02:53:34.368Z,94.00
2019-05-21T02:56:00.845Z,93.80
2019-05-21T02:58:29.399Z,94.30
2019-05-21T03:01:17.930Z,93.90
2019-05-21T03:03:46.086Z,94.00
2019-05-21T03:06:15.137Z,94.20
2019-05-21T03:08:43.882Z,94.20
2019-05-21T03:11:12.710Z,94.30
2019-05-21T03:13:41.336Z,94.30
2019-05-21T03:16:09.849Z,94.50
2019-05-21T03:18:38.392Z,94.50
2019-05-21T03:21:06.978Z,94.40
2019-05-21T03:23:35.524Z,94.40
2019-05-21T03:26:04.077Z,94.50
2019-05-21T03:28:32.632Z,94.50
2019-05-21T03:31:01.181Z,94.60
2019-05-21T03:33:29.713Z,94.60
2019-05-21T03:35:58.311Z,94.50
2019-05-21T03:38:26.843Z,94.60
2019-05-21T03:40:55.334Z,94.70
2019-05-21T03:43:23.954Z,94.70
2019-05-21T03:45:52.506Z,94.80
2019-05-21T03:48:21.132Z,94.70
2019-05-21T03:50:49.790Z,94.90
2019-05-21T03:53:18.249Z,94.80
2019-05-21T03:55:46.952Z,94.80
2019-05-21T03:58:15.413Z,95.00
2019-05-21T04:00:44.044Z,94.80
2019-05-21T04:03:12.565Z,94.90
2019-05-21T04:05:41.178Z,95.00
2019-05-21T04:08:09.653Z,95.00
2019-05-21T04:10:38.502Z,95.00
2019-05-21T04:13:07.579Z,95.10
2019-05-21T04:15:54.518Z,94.90
2019-05-21T04:18:24.608Z,94.80
2019-05-21T04:20:53.165Z,94.90
2019-05-21T04:23:21.694Z,95.00
2019-05-21T04:25:50.270Z,94.90
2019-05-21T04:28:18.798Z,95.10
2019-05-21T04:30:47.300Z,94.80
2019-05-21T04:33:15.791Z,94.80
2019-05-21T04:35:44.491Z,94.90
2019-05-21T04:38:12.946Z,94.90
2019-05-21T04:40:41.543Z,94.80
2019-05-21T04:43:10.236Z,94.90
2019-05-21T04:45:38.792Z,95.30
2019-05-21T04:48:07.416Z,94.80
2019-05-21T04:50:36.030Z,94.90
2019-05-21T04:53:04.807Z,95.00
2019-05-21T04:55:33.447Z,95.10
2019-05-21T04:58:01.926Z,95.10
2019-05-21T05:00:30.447Z,95.20
2019-05-21T05:02:58.930Z,95.10
2019-05-21T05:05:27.456Z,95.20
2019-05-21T05:07:55.986Z,94.90
2019-05-21T05:10:24.451Z,94.70
2019-05-21T05:12:53.196Z,94.90
2019-05-21T05:15:21.791Z,94.80
2019-05-21T05:17:50.311Z,94.90
2019-05-21T05:20:18.922Z,94.80
2019-05-21T05:22:47.391Z,94.60
2019-05-21T05:25:16.003Z,94.70
2019-05-21T05:27:44.634Z,94.90
2019-05-21T05:30:13.902Z,94.90
2019-05-21T05:32:42.410Z,94.90
2019-05-21T05:35:11.149Z,95.00
2019-05-21T05:37:46.397Z,94.80
2019-05-21T05:40:10.564Z,95.00
2019-05-21T05:42:39.157Z,94.90
2019-05-21T05:45:08.480Z,95.00
2019-05-21T05:47:37.113Z,95.00
2019-05-21T05:50:12.159Z,94.60
2019-05-21T05:52:40.828Z,95.00
2019-05-21T05:55:09.636Z,95.20
2019-05-21T05:57:38.144Z,95.30
2019-05-21T06:00:10.240Z,95.20
2019-05-21T06:02:38.744Z,95.10
2019-05-21T06:05:08.154Z,95.30
2019-05-21T06:07:36.691Z,95.10
2019-05-21T06:10:08.834Z,95.10
2019-05-21T06:12:37.485Z,95.20
2019-05-21T06:15:08.087Z,95.10
2019-05-21T06:17:36.609Z,95.20
2019-05-21T06:20:06.737Z,95.10
2019-05-21T06:22:35.341Z,95.00
2019-05-21T06:25:05.774Z,95.10
2019-05-21T06:27:34.497Z,95.10
2019-05-21T06:30:04.456Z,95.00
2019-05-21T06:32:33.160Z,95.10
2019-05-21T06:35:01.723Z,95.20
2019-05-21T06:37:30.197Z,95.20
2019-05-21T06:39:59.147Z,95.20
2019-05-21T06:42:27.903Z,95.20
2019-05-21T06:44:56.545Z,95.40
2019-05-21T06:47:25.353Z,95.30
2019-05-21T06:49:53.905Z,95.40
2019-05-21T06:52:22.398Z,95.40
2019-05-21T06:54:50.897Z,95.40
2019-05-21T06:57:19.482Z,95.40
2019-05-21T06:59:48.221Z,95.50
2019-05-21T07:02:16.744Z,95.50
2019-05-21T07:04:45.301Z,95.80
2019-05-21T07:07:13.882Z,95.60
2019-05-21T07:09:42.519Z,95.50
2019-05-21T07:12:11.151Z,95.50
2019-05-21T07:14:39.930Z,95.80
2019-05-21T07:17:08.807Z,95.70
2019-05-21T07:19:50.511Z,95.60
2019-05-21T07:22:22.390Z,95.50
2019-05-21T07:24:51.011Z,95.70
2019-05-21T07:27:19.557Z,95.60
2019-05-21T07:29:48.018Z,95.40
2019-05-21T07:32:16.512Z,95.60
2019-05-21T07:34:45.083Z,95.70
2019-05-21T07:37:13.769Z,95.60
2019-05-21T07:39:42.245Z,95.90
2019-05-21T07:42:10.813Z,95.90
2019-05-21T07:44:44.373Z,96.20
2019-05-21T07:47:12.864Z,95.80
2019-05-21T07:49:41.515Z,95.80
2019-05-21T07:52:10.123Z,95.80
2019-05-21T07:54:38.608Z,95.70
2019-05-21T07:57:07.183Z,95.90
2019-05-21T07:59:35.662Z,96.10
2019-05-21T08:02:04.336Z,95.90
2019-05-21T08:04:32.866Z,95.80
2019-05-21T08:07:01.428Z,95.80
2019-05-21T08:09:30.311Z,95.90
2019-05-21T08:11:58.845Z,95.80
2019-05-21T08:14:27.596Z,95.60
2019-05-21T08:16:56.119Z,95.60
2019-05-21T08:19:24.680Z,95.60
2019-05-21T08:21:53.183Z,95.70
2019-05-21T08:24:21.894Z,95.70
2019-05-21T08:26:50.518Z,95.70
2019-05-21T08:29:18.998Z,95.50
2019-05-21T08:31:47.592Z,95.90
2019-05-21T08:34:17.101Z,95.60
2019-05-21T08:36:45.803Z,95.40
2019-05-21T08:39:27.661Z,95.50
2019-05-21T08:41:44.598Z,95.70
2019-05-21T08:44:14.346Z,95.90
2019-05-21T08:47:02.201Z,95.80
2019-05-21T08:49:30.770Z,95.70
2019-05-21T08:51:59.677Z,95.70
2019-05-21T08:54:46.238Z,95.70
2019-05-21T08:57:15.134Z,95.90
2019-05-21T08:59:43.970Z,95.80
2019-05-21T09:02:12.542Z,95.90
2019-05-21T09:04:46.403Z,95.60
2019-05-21T09:07:11.564Z,95.30
2019-05-21T09:09:49.852Z,95.40
2019-05-21T09:12:10.624Z,95.70
2019-05-21T09:14:39.111Z,95.50
2019-05-21T09:17:07.770Z,95.60
2019-05-21T09:19:36.884Z,95.50
2019-05-21T09:22:05.638Z,95.60
2019-05-21T09:24:34.355Z,95.50
2019-05-21T09:27:02.955Z,95.30
2019-05-21T09:29:31.669Z,95.50
2019-05-21T09:32:00.217Z,95.30
2019-05-21T09:34:28.734Z,95.30
2019-05-21T09:36:57.351Z,95.50
2019-05-21T09:39:25.915Z,95.60
2019-05-21T09:41:54.502Z,95.80
2019-05-21T09:44:22.954Z,95.70
2019-05-21T09:46:51.606Z,95.50
2019-05-21T09:49:20.129Z,95.30
2019-05-21T09:51:48.716Z,95.50
2019-05-21T09:54:17.255Z,95.40
2019-05-21T09:56:45.809Z,95.20
2019-05-21T09:59:21.786Z,95.50
2019-05-21T10:01:51.982Z,95.30
2019-05-21T10:04:20.501Z,95.30
2019-05-21T10:06:49.110Z,95.40
2019-05-21T10:09:19.403Z,95.60
2019-05-21T10:11:47.915Z,95.10
2019-05-21T10:14:16.378Z,95.20
2019-05-21T10:16:44.993Z,95.50
2019-05-21T10:19:13.488Z,95.40
2019-05-21T10:21:42.336Z,95.40
2019-05-21T10:24:11.192Z,95.40
2019-05-21T10:26:39.868Z,95.40
2019-05-21T10:29:08.407Z,95.30
2019-05-21T10:31:42.167Z,95.30
2019-05-21T10:34:13.282Z,95.30
2019-05-21T10:36:41.047Z,95.50
2019-05-21T10:39:09.799Z,95.60
2019-05-21T10:41:38.536Z,95.60
2019-05-21T10:44:07.283Z,95.40
2019-05-21T10:46:35.816Z,95.60
2019-05-21T10:49:22.678Z,95.90
2019-05-21T10:51:52.181Z,95.60
2019-05-21T10:54:20.814Z,95.80
2019-05-21T10:56:50.438Z,95.60
2019-05-21T10:59:19.056Z,95.70
2019-05-21T11:01:49.337Z,95.70
2019-05-21T11:04:19.532Z,95.70
2019-05-21T11:06:48.704Z,95.90
2019-05-21T11:09:19.006Z,96.20
2019-05-21T11:11:47.560Z,95.80
2019-05-21T11:14:16.152Z,95.70
2019-05-21T11:16:44.669Z,95.70
2019-05-21T11:19:13.403Z,95.60
2019-05-21T11:21:41.945Z,95.70
2019-05-21T11:24:10.456Z,95.80
2019-05-21T11:26:39.068Z,95.60
2019-05-21T11:29:07.665Z,95.40
2019-05-21T11:31:36.355Z,95.00
2019-05-21T11:34:05.080Z,95.20
2019-05-21T11:36:33.848Z,95.30
2019-05-21T11:39:02.559Z,95.20
2019-05-21T11:41:31.023Z,95.20
2019-05-21T11:43:59.614Z,95.10
2019-05-21T11:46:28.178Z,95.20
2019-05-21T11:48:56.753Z,95.10
2019-05-21T11:51:25.436Z,95.20
2019-05-21T11:53:54.025Z,95.00
2019-05-21T11:56:22.851Z,95.30
2019-05-21T11:58:51.516Z,95.50
2019-05-21T12:01:20.173Z,95.30
2019-05-21T12:03:48.840Z,95.10
2019-05-21T12:06:17.375Z,94.90
2019-05-21T12:08:56.347Z,95.20
2019-05-21T12:11:16.835Z,94.90
2019-05-21T12:13:46.477Z,95.00
2019-05-21T12:16:15.014Z,95.20
2019-05-21T12:18:43.520Z,95.10
2019-05-21T12:21:12.142Z,95.10
2019-05-21T12:23:41.756Z,95.00
2019-05-21T12:26:10.617Z,95.10
2019-05-21T12:28:39.235Z,94.40
2019-05-21T12:31:07.881Z,95.10
2019-05-21T12:33:36.512Z,94.80
2019-05-21T12:36:05.965Z,94.80
2019-05-21T12:38:34.537Z,94.80
2019-05-21T12:41:03.197Z,94.80
2019-05-21T12:43:31.698Z,94.50
2019-05-21T12:46:00.212Z,94.10
2019-05-21T12:48:28.820Z,93.90
2019-05-21T12:50:57.509Z,94.40
2019-05-21T12:53:26.275Z,94.70
2019-05-21T12:55:54.994Z,94.20
2019-05-21T12:58:23.705Z,94.50
2019-05-21T13:00:52.461Z,94.40
2019-05-21T13:03:20.990Z,94.40
2019-05-21T13:05:49.472Z,94.30
2019-05-21T13:08:18.103Z,94.20
2019-05-21T13:10:48.517Z,94.20
2019-05-21T13:13:17.114Z,94.30
2019-05-21T13:15:45.778Z,94.40
2019-05-21T13:18:14.344Z,94.60
2019-05-21T13:20:42.877Z,94.60
2019-05-21T13:23:11.667Z,94.80
2019-05-21T13:25:40.660Z,94.60
2019-05-21T13:28:09.475Z,94.80
2019-05-21T13:30:38.028Z,94.60
2019-05-21T13:33:06.765Z,94.70
2019-05-21T13:35:35.284Z,94.50
2019-05-21T13:38:04.090Z,94.40
2019-05-21T13:40:34.280Z,94.40
2019-05-21T13:43:02.869Z,94.30
2019-05-21T13:45:31.535Z,94.30
2019-05-21T13:48:01.410Z,94.20
2019-05-21T13:50:29.955Z,94.00
2019-05-21T13:52:58.761Z,94.20
2019-05-21T13:55:27.288Z,94.40
2019-05-21T13:57:55.884Z,94.90
2019-05-21T14:00:38.771Z,94.80
2019-05-21T14:03:07.721Z,94.50
2019-05-21T14:05:37.101Z,94.80
2019-05-21T14:08:05.739Z,94.70
2019-05-21T14:10:34.543Z,94.80
2019-05-21T14:13:03.604Z,94.70
2019-05-21T14:15:32.339Z,94.50
2019-05-21T14:18:00.923Z,95.00
2019-05-21T14:20:30.934Z,94.70
2019-05-21T14:22:59.495Z,94.50
2019-05-21T14:25:28.068Z,94.60
2019-05-21T14:27:56.641Z,94.50
2019-05-21T14:30:25.263Z,94.70
2019-05-21T14:32:53.825Z,94.60
2019-05-21T14:35:22.445Z,94.50
2019-05-21T14:37:50.915Z,94.40
2019-05-21T14:40:31.870Z,94.20
2019-05-21T14:42:59.726Z,94.00
2019-05-21T14:45:23.325Z,93.80
2019-05-21T14:47:51.885Z,94.10
2019-05-21T14:50:20.568Z,94.10
2019-05-21T14:52:52.096Z,93.60
2019-05-21T14:55:19.387Z,93.50
2019-05-21T14:58:02.027Z,93.80
2019-05-21T15:00:23.570Z,93.60
2019-05-21T15:02:52.343Z,93.80
2019-05-21T15:05:21.074Z,93.80
2019-05-21T15:07:49.926Z,93.70
2019-05-21T15:10:18.681Z,93.60
2019-05-21T15:12:47.271Z,94.10
2019-05-21T15:15:16.052Z,93.60
2019-05-21T15:17:44.719Z,94.30
2019-05-21T15:20:32.861Z,93.70
2019-05-21T15:23:01.453Z,94.10
2019-05-21T15:25:30.071Z,93.90
2019-05-21T15:27:59.327Z,93.90
2019-05-21T15:30:27.980Z,94.10
2019-05-21T15:32:56.833Z,94.00
2019-05-21T15:35:25.396Z,94.00
2019-05-21T15:37:53.901Z,93.90
2019-05-21T15:40:23.426Z,94.20
2019-05-21T15:42:53.589Z,94.10
2019-05-21T15:45:23.012Z,94.00
2019-05-21T15:47:51.727Z,94.30
2019-05-21T15:50:22.520Z,93.90
2019-05-21T15:52:51.152Z,93.50
2019-05-21T15:55:19.855Z,93.60
2019-05-21T15:57:48.589Z,93.30
2019-05-21T16:00:17.505Z,93.30
2019-05-21T16:02:46.072Z,93.00
2019-05-21T16:05:15.094Z,93.10
2019-05-21T16:07:43.792Z,93.10
2019-05-21T16:10:12.679Z,93.20
2019-05-21T16:12:41.470Z,94.00
2019-05-21T16:15:10.661Z,93.60
2019-05-21T16:17:39.472Z,94.10
2019-05-21T16:20:08.726Z,93.80
2019-05-21T16:22:37.439Z,94.10
2019-05-21T16:25:07.583Z,93.90
2019-05-21T16:27:37.704Z,94.10
2019-05-21T16:30:07.944Z,94.40
2019-05-21T16:32:38.353Z,93.90
2019-05-21T16:35:10.434Z,94.20
2019-05-21T16:37:39.227Z,94.00
2019-05-21T16:40:08.793Z,94.10
2019-05-21T16:42:37.556Z,94.20
2019-05-21T16:45:09.821Z,94.20
2019-05-21T16:47:45.616Z,94.10
2019-05-21T16:50:09.488Z,94.00
2019-05-21T16:52:38.542Z,94.00
2019-05-21T16:55:09.285Z,93.80
2019-05-21T16:57:41.013Z,94.00
2019-05-21T17:00:19.079Z,94.10
2019-05-21T17:02:49.250Z,94.00
2019-05-21T17:05:19.445Z,94.10
2019-05-21T17:07:51.245Z,93.90
2019-05-21T17:10:21.567Z,94.00
2019-05-21T17:12:50.218Z,94.10
2019-05-21T17:15:18.918Z,94.00
2019-05-21T17:17:47.609Z,94.10
2019-05-21T17:20:18.356Z,94.10
2019-05-21T17:22:46.660Z,94.30
2019-05-21T17:25:16.005Z,94.60
2019-05-21T17:27:44.672Z,94.30
2019-05-21T17:30:13.892Z,94.30
2019-05-21T17:32:42.538Z,94.10
2019-05-21T17:35:12.768Z,94.60
2019-05-21T17:37:41.672Z,94.60
2019-05-21T17:40:10.820Z,94.80
2019-05-21T17:42:39.665Z,94.80
2019-05-21T17:45:08.827Z,95.00
2019-05-21T17:47:52.509Z,95.10
2019-05-21T17:50:22.641Z,95.10
2019-05-21T17:52:53.110Z,95.00
2019-05-21T17:55:21.901Z,94.90
2019-05-21T17:57:50.728Z,95.20
2019-05-21T18:00:21.457Z,95.30
2019-05-21T18:02:53.450Z,95.20
2019-05-21T18:05:22.372Z,95.20
2019-05-21T18:07:51.832Z,95.30
2019-05-21T18:10:22.606Z,95.40
2019-05-21T18:12:51.355Z,95.20
2019-05-21T18:15:20.192Z,95.10
2019-05-21T18:17:50.309Z,95.40
2019-05-21T18:20:21.454Z,95.60
2019-05-21T18:22:50.632Z,95.40
2019-05-21T18:25:20.352Z,95.40
2019-05-21T18:27:49.101Z,95.50
2019-05-21T18:30:19.695Z,95.50
2019-05-21T18:32:49.193Z,95.50
2019-05-21T18:35:17.841Z,95.50
2019-05-21T18:37:46.811Z,95.50
2019-05-21T18:40:16.642Z,95.50
2019-05-21T18:42:45.574Z,95.80
2019-05-21T18:45:14.542Z,95.80
2019-05-21T18:47:43.292Z,95.90
2019-05-21T18:50:12.239Z,95.80
2019-05-21T18:52:40.915Z,95.70
2019-05-21T18:55:09.860Z,95.70
2019-05-21T18:57:38.428Z,95.70
2019-05-21T19:00:11.293Z,95.50
2019-05-21T19:02:40.083Z,95.40
2019-05-21T19:05:10.488Z,95.10
2019-05-21T19:07:39.464Z,95.00
2019-05-21T19:10:13.044Z,94.80
2019-05-21T19:12:42.047Z,95.00
2019-05-21T19:15:11.425Z,95.10
2019-05-21T19:17:40.157Z,94.90
2019-05-21T19:20:09.286Z,95.00
2019-05-21T19:22:38.205Z,95.00
2019-05-21T19:25:08.160Z,95.10
2019-05-21T19:27:36.823Z,95.00
2019-05-21T19:30:06.954Z,95.30
2019-05-21T19:32:35.551Z,95.20
2019-05-21T19:35:06.749Z,95.20
2019-05-21T19:37:35.401Z,95.30
2019-05-21T19:40:05.455Z,95.30
2019-05-21T19:42:34.117Z,95.60
2019-05-21T19:45:03.601Z,95.40
2019-05-21T19:47:32.482Z,95.50
2019-05-21T19:50:01.102Z,95.60
2019-05-21T19:52:29.852Z,95.50
2019-05-21T19:54:58.521Z,95.60
2019-05-21T19:57:30.474Z,95.70
2019-05-21T19:59:58.264Z,95.80
2019-05-21T20:02:26.949Z,95.90
2019-05-21T20:04:55.825Z,95.90
2019-05-21T20:07:26.122Z,96.00
2019-05-21T20:09:55.846Z,96.00
2019-05-21T20:12:24.786Z,95.90
2019-05-21T20:14:54.472Z,95.90
2019-05-21T20:17:24.680Z,96.00
2019-05-21T20:19:53.267Z,95.90
2019-05-21T20:22:26.113Z,96.00
2019-05-21T20:24:52.303Z,96.00
2019-05-21T20:27:20.862Z,95.90
2019-05-21T20:29:50.261Z,95.90
2019-05-21T20:32:20.831Z,96.00
2019-05-21T20:34:51.127Z,95.80
2019-05-21T20:37:21.802Z,96.20
2019-05-21T20:39:51.941Z,96.00
2019-05-21T20:42:23.376Z,95.90
2019-05-21T20:44:52.584Z,95.90
2019-05-21T20:47:21.209Z,96.00
2019-05-21T20:49:50.921Z,96.00
2019-05-21T20:52:20.166Z,96.10
2019-05-21T20:54:50.326Z,96.00
2019-05-21T20:57:20.651Z,96.00
2019-05-21T20:59:49.215Z,96.00
2019-05-21T21:02:17.931Z,96.00
2019-05-21T21:04:47.280Z,96.00
2019-05-21T21:07:19.538Z,96.20
2019-05-21T21:09:49.433Z,96.20
2019-05-21T21:12:18.768Z,96.20
2019-05-21T21:14:50.966Z,96.20
2019-05-21T21:17:20.130Z,96.20
2019-05-21T21:19:50.278Z,96.20
2019-05-21T21:22:18.925Z,96.30
2019-05-21T21:24:47.777Z,96.40
2019-05-21T21:27:16.369Z,96.30
2019-05-21T21:29:45.033Z,96.00
2019-05-21T21:32:13.851Z,96.20
2019-05-21T21:34:42.842Z,96.20
2019-05-21T21:37:11.316Z,96.30
2019-05-21T21:39:43.716Z,96.30
2019-05-21T21:42:13.071Z,96.60
2019-05-21T21:44:42.020Z,96.60
2019-05-21T21:47:10.726Z,96.60
2019-05-21T21:49:42.054Z,96.60
2019-05-21T21:52:11.341Z,96.60
2019-05-21T21:54:40.442Z,96.60
2019-05-21T21:57:10.947Z,96.60
2019-05-21T21:59:39.541Z,96.90
2019-05-21T22:02:28.487Z,96.60
2019-05-21T22:04:57.816Z,96.60
2019-05-21T22:07:27.567Z,96.70
2019-05-21T22:09:56.392Z,96.50
2019-05-21T22:12:26.919Z,96.50
2019-05-21T22:14:58.598Z,96.40
2019-05-21T22:17:27.369Z,96.40
2019-05-21T22:19:57.801Z,96.60
2019-05-21T22:22:26.434Z,96.50
2019-05-21T22:24:55.723Z,96.40
2019-05-21T22:27:24.395Z,96.40
2019-05-21T22:29:53.037Z,96.60
2019-05-21T22:32:21.752Z,96.50
2019-05-21T22:34:50.232Z,96.50
2019-05-21T22:37:20.771Z,96.70
2019-05-21T22:39:49.424Z,96.80
2019-05-21T22:42:18.625Z,96.60
2019-05-21T22:44:48.062Z,96.50
2019-05-21T22:47:16.819Z,96.50
2019-05-21T22:49:45.364Z,96.60
2019-05-21T22:52:14.147Z,96.70
2019-05-21T22:54:42.711Z,96.50
2019-05-21T22:57:11.347Z,96.50
2019-05-21T22:59:39.899Z,96.60
2019-05-21T23:02:10.182Z,96.40
2019-05-21T23:04:38.715Z,96.50
2019-05-21T23:07:07.338Z,96.60
2019-05-21T23:09:36.353Z,96.70
2019-05-21T23:12:05.083Z,96.70
2019-05-21T23:14:33.535Z,96.60
2019-05-21T23:17:02.528Z,96.70
2019-05-21T23:19:32.298Z,96.50
2019-05-21T23:22:01.040Z,96.50
2019-05-21T23:24:30.126Z,96.50
2019-05-21T23:26:58.855Z,96.60
2019-05-21T23:29:27.681Z,96.50
2019-05-21T23:31:56.168Z,96.50
2019-05-21T23:34:24.908Z,96.60
2019-05-21T23:36:55.200Z,96.60
2019-05-21T23:39:25.553Z,96.70
2019-05-21T23:41:55.257Z,96.50
2019-05-21T23:44:24.129Z,96.40
2019-05-21T23:46:52.888Z,96.50
2019-05-21T23:49:22.064Z,96.50
2019-05-21T23:51:50.913Z,96.60
2019-05-21T23:54:19.519Z,96.50
2019-05-21T23:56:48.292Z,96.50
2019-05-21T23:59:17.203Z,96.50
